createdAt,value
2018-04-09T00:00:16.279Z,77.70
2018-04-09T00:01:16.432Z,77.89
2018-04-09T00:02:16.584Z,78.17
2018-04-09T00:03:16.734Z,78.46
2018-04-09T00:04:16.885Z,78.56
2018-04-09T00:05:17.039Z,78.75
2018-04-09T00:06:17.192Z,78.80
2018-04-09T00:07:17.340Z,79.70
2018-04-09T00:08:17.492Z,78.90
2018-04-09T00:09:17.642Z,78.94
2018-04-09T00:10:17.796Z,78.90
2018-04-09T00:11:17.946Z,78.75
2018-04-09T00:12:18.098Z,78.08
2018-04-09T00:13:18.250Z,78.27
2018-04-09T00:14:18.399Z,77.70
2018-04-09T00:15:18.554Z,77.80
2018-04-09T00:16:18.702Z,77.80
2018-04-09T00:17:18.853Z,77.80
2018-04-09T00:18:19.005Z,77.89
2018-04-09T00:19:19.158Z,78.08
2018-04-09T00:20:19.308Z,77.32
2018-04-09T00:21:19.461Z,77.61
2018-04-09T00:22:19.611Z,78.08
2018-04-09T00:23:19.763Z,78.08
2018-04-09T00:24:19.913Z,78.23
2018-04-09T00:25:20.062Z,78.75
2018-04-09T00:26:20.214Z,77.80
2018-04-09T00:27:20.367Z,78.75
2018-04-09T00:28:20.518Z,78.27
2018-04-09T00:29:20.671Z,78.37
2018-04-09T00:30:20.824Z,77.95
2018-04-09T00:31:20.975Z,78.08
2018-04-09T00:32:21.126Z,77.89
2018-04-09T00:33:21.278Z,78.17
2018-04-09T00:34:21.428Z,78.27
2018-04-09T00:35:21.580Z,78.08
2018-04-09T00:36:21.731Z,77.80
2018-04-09T00:37:21.884Z,78.08
2018-04-09T00:38:22.036Z,77.89
2018-04-09T00:39:22.185Z,78.75
2018-04-09T00:40:22.337Z,78.46
2018-04-09T00:41:22.488Z,77.76
2018-04-09T00:42:22.642Z,78.71
2018-04-09T00:43:22.792Z,78.52
2018-04-09T00:44:22.975Z,78.90
2018-04-09T00:45:23.096Z,79.66
2018-04-09T00:46:23.245Z,79.75
2018-04-09T00:47:23.396Z,79.57
2018-04-09T00:48:23.547Z,79.57
2018-04-09T00:49:23.696Z,80.13
2018-04-09T00:50:23.854Z,80.42
2018-04-09T00:51:24.001Z,80.04
2018-04-09T00:52:24.152Z,80.13
2018-04-09T00:53:24.302Z,80.80
2018-04-09T00:54:24.453Z,81.09
2018-04-09T00:55:24.606Z,81.18
2018-04-09T00:56:24.760Z,81.81
2018-04-09T00:57:24.905Z,81.52
2018-04-09T00:58:25.056Z,81.52
2018-04-09T00:59:25.225Z,81.43
2018-04-09T01:00:25.360Z,82.00
2018-04-09T01:01:25.511Z,82.28
2018-04-09T01:02:25.661Z,82.57
2018-04-09T01:03:25.812Z,82.67
2018-04-09T01:04:25.968Z,83.04
2018-04-09T01:05:26.118Z,82.95
2018-04-09T01:06:26.267Z,82.67
2018-04-09T01:07:26.424Z,82.86
2018-04-09T01:08:26.572Z,83.23
2018-04-09T01:09:26.721Z,83.04
2018-04-09T01:10:26.877Z,82.67
2018-04-09T01:11:27.026Z,82.67
2018-04-09T01:12:27.182Z,82.57
2018-04-09T01:13:27.328Z,82.48
2018-04-09T01:14:27.476Z,82.00
2018-04-09T01:15:27.628Z,81.33
2018-04-09T01:16:27.780Z,81.81
2018-04-09T01:17:27.930Z,81.62
2018-04-09T01:18:28.083Z,82.09
2018-04-09T01:19:28.234Z,82.28
2018-04-09T01:20:28.388Z,82.38
2018-04-09T01:21:28.535Z,82.38
2018-04-09T01:22:28.687Z,83.14
2018-04-09T01:23:28.839Z,83.04
2018-04-09T01:24:28.992Z,83.33
2018-04-09T01:25:29.141Z,82.48
2018-04-09T01:26:29.290Z,82.19
2018-04-09T01:27:29.442Z,82.19
2018-04-09T01:28:29.593Z,82.67
2018-04-09T01:29:29.746Z,82.53
2018-04-09T01:30:29.899Z,82.57
2018-04-09T01:31:30.047Z,82.62
2018-04-09T01:32:30.198Z,83.19
2018-04-09T01:33:30.352Z,82.53
2018-04-09T01:34:30.502Z,82.67
2018-04-09T01:35:30.658Z,82.38
2018-04-09T01:36:30.805Z,82.76
2018-04-09T01:37:30.953Z,82.67
2018-04-09T01:38:31.107Z,83.00
2018-04-09T01:39:31.258Z,82.62
2018-04-09T01:40:31.409Z,83.00
2018-04-09T01:41:31.566Z,82.81
2018-04-09T01:42:31.710Z,83.19
2018-04-09T01:43:31.863Z,83.14
2018-04-09T01:44:32.014Z,82.76
2018-04-09T01:45:32.164Z,83.04
2018-04-09T01:46:32.318Z,82.57
2018-04-09T01:47:32.467Z,82.48
2018-04-09T01:48:32.618Z,82.28
2018-04-09T01:49:32.770Z,82.28
2018-04-09T01:50:32.921Z,81.90
2018-04-09T01:51:33.076Z,81.33
2018-04-09T01:52:33.230Z,81.62
2018-04-09T01:53:33.372Z,81.05
2018-04-09T01:54:33.526Z,81.43
2018-04-09T01:55:33.676Z,81.24
2018-04-09T01:56:33.827Z,81.05
2018-04-09T01:57:33.978Z,80.66
2018-04-09T01:58:34.130Z,80.66
2018-04-09T01:59:34.280Z,79.72
2018-04-09T02:00:34.431Z,80.10
2018-04-09T02:01:34.583Z,80.76
2018-04-09T02:02:34.732Z,81.62
2018-04-09T02:03:34.886Z,81.52
2018-04-09T02:04:35.035Z,81.43
2018-04-09T02:05:35.188Z,82.19
2018-04-09T02:06:35.339Z,82.00
2018-04-09T02:07:35.490Z,81.43
2018-04-09T02:08:35.642Z,81.24
2018-04-09T02:09:35.792Z,81.62
2018-04-09T02:10:35.943Z,81.81
2018-04-09T02:11:36.097Z,82.28
2018-04-09T02:12:36.245Z,82.38
2018-04-09T02:13:36.396Z,82.28
2018-04-09T02:14:36.536Z,81.96
2018-04-09T02:15:36.739Z,83.00
2018-04-09T02:16:36.855Z,83.10
2018-04-09T02:17:37.005Z,82.71
2018-04-09T02:18:37.156Z,83.10
2018-04-09T02:19:37.305Z,82.81
2018-04-09T02:20:37.456Z,82.71
2018-04-09T02:21:37.609Z,83.00
2018-04-09T02:22:37.759Z,83.00
2018-04-09T02:23:37.910Z,82.62
2018-04-09T02:24:38.062Z,83.00
2018-04-09T02:25:38.211Z,82.81
2018-04-09T02:26:38.364Z,83.19
2018-04-09T02:27:38.513Z,83.39
2018-04-09T02:28:38.662Z,83.39
2018-04-09T02:29:38.816Z,83.10
2018-04-09T02:30:38.967Z,82.81
2018-04-09T02:31:39.119Z,82.81
2018-04-09T02:32:39.269Z,82.53
2018-04-09T02:33:39.421Z,82.53
2018-04-09T02:34:39.571Z,82.62
2018-04-09T02:35:39.721Z,82.62
2018-04-09T02:36:39.872Z,82.91
2018-04-09T02:37:40.022Z,82.71
2018-04-09T02:38:40.173Z,82.71
2018-04-09T02:39:40.325Z,83.29
2018-04-09T02:40:40.472Z,84.24
2018-04-09T02:41:40.625Z,84.43
2018-04-09T02:42:40.778Z,84.81
2018-04-09T02:43:40.928Z,85.00
2018-04-09T02:44:41.079Z,85.43
2018-04-09T02:45:41.230Z,85.76
2018-04-09T02:46:41.382Z,85.86
2018-04-09T02:47:41.530Z,85.47
2018-04-09T02:48:41.684Z,85.62
2018-04-09T02:49:41.832Z,85.81
2018-04-09T02:50:41.981Z,85.91
2018-04-09T02:51:42.132Z,85.72
2018-04-09T02:52:42.283Z,85.91
2018-04-09T02:53:42.433Z,85.53
2018-04-09T02:54:42.586Z,85.72
2018-04-09T02:55:42.734Z,85.43
2018-04-09T02:56:42.886Z,85.43
2018-04-09T02:57:43.037Z,85.24
2018-04-09T02:58:43.197Z,86.19
2018-04-09T02:59:43.340Z,86.10
2018-04-09T03:00:43.491Z,86.10
2018-04-09T03:01:43.642Z,86.29
2018-04-09T03:02:43.792Z,86.10
2018-04-09T03:03:43.945Z,85.72
2018-04-09T03:04:44.095Z,86.47
2018-04-09T03:05:44.246Z,85.81
2018-04-09T03:06:44.400Z,87.05
2018-04-09T03:07:44.547Z,86.86
2018-04-09T03:08:44.704Z,87.43
2018-04-09T03:09:44.860Z,87.81
2018-04-09T03:10:45.000Z,86.95
2018-04-09T03:11:45.154Z,87.05
2018-04-09T03:12:45.301Z,87.34
2018-04-09T03:13:45.453Z,87.43
2018-04-09T03:14:45.605Z,86.67
2018-04-09T03:15:45.755Z,86.47
2018-04-09T03:16:45.906Z,86.19
2018-04-09T03:17:46.056Z,86.10
2018-04-09T03:18:46.209Z,86.57
2018-04-09T03:19:46.357Z,87.62
2018-04-09T03:20:46.506Z,87.34
2018-04-09T03:21:46.656Z,87.71
2018-04-09T03:22:46.806Z,87.52
2018-04-09T03:23:46.955Z,87.71
2018-04-09T03:24:47.105Z,87.62
2018-04-09T03:25:47.258Z,88.09
2018-04-09T03:26:47.411Z,87.43
2018-04-09T03:27:47.560Z,88.05
2018-04-09T03:28:47.713Z,88.47
2018-04-09T03:29:47.864Z,87.90
2018-04-09T03:30:48.014Z,87.34
2018-04-09T03:31:48.166Z,87.19
2018-04-09T03:32:48.316Z,86.95
2018-04-09T03:33:48.466Z,87.14
2018-04-09T03:34:48.616Z,87.05
2018-04-09T03:35:48.769Z,86.38
2018-04-09T03:36:48.919Z,86.29
2018-04-09T03:37:49.069Z,86.00
2018-04-09T03:38:49.220Z,86.00
2018-04-09T03:39:49.370Z,85.81
2018-04-09T03:40:49.521Z,86.29
2018-04-09T03:41:49.673Z,86.86
2018-04-09T03:42:49.823Z,87.01
2018-04-09T03:43:49.974Z,87.19
2018-04-09T03:44:50.123Z,87.95
2018-04-09T03:45:50.274Z,88.24
2018-04-09T03:46:50.425Z,89.09
2018-04-09T03:47:50.574Z,89.19
2018-04-09T03:48:50.723Z,89.47
2018-04-09T03:49:50.875Z,89.09
2018-04-09T03:50:51.026Z,88.62
2018-04-09T03:51:51.175Z,88.43
2018-04-09T03:52:51.326Z,88.81
2018-04-09T03:53:51.476Z,88.62
2018-04-09T03:54:51.628Z,88.81
2018-04-09T03:55:51.776Z,88.81
2018-04-09T03:56:51.928Z,88.62
2018-04-09T03:57:52.076Z,89.19
2018-04-09T03:58:52.228Z,89.09
2018-04-09T03:59:52.378Z,88.53
2018-04-09T04:00:52.525Z,88.62
2018-04-09T04:01:52.681Z,88.24
2018-04-09T04:02:52.827Z,87.48
2018-04-09T04:03:52.978Z,87.48
2018-04-09T04:04:53.127Z,87.19
2018-04-09T04:05:53.277Z,86.91
2018-04-09T04:06:53.425Z,87.19
2018-04-09T04:07:53.577Z,87.19
2018-04-09T04:08:53.728Z,87.86
2018-04-09T04:09:53.880Z,88.62
2018-04-09T04:10:54.030Z,88.90
2018-04-09T04:11:54.180Z,89.57
2018-04-09T04:12:54.333Z,89.09
2018-04-09T04:13:54.481Z,89.67
2018-04-09T04:14:54.631Z,89.86
2018-04-09T04:15:54.781Z,90.14
2018-04-09T04:16:54.929Z,89.57
2018-04-09T04:17:55.080Z,89.67
2018-04-09T04:18:55.229Z,89.19
2018-04-09T04:19:55.379Z,89.57
2018-04-09T04:20:55.529Z,89.57
2018-04-09T04:21:55.679Z,89.38
2018-04-09T04:22:55.831Z,89.38
2018-04-09T04:23:56.998Z,89.76
2018-04-09T04:24:56.072Z,89.57
2018-04-09T04:25:56.223Z,89.00
2018-04-09T04:26:56.371Z,88.62
2018-04-09T04:27:56.526Z,89.47
2018-04-09T04:28:56.675Z,89.00
2018-04-09T04:29:56.825Z,88.90
2018-04-09T04:30:57.787Z,88.24
2018-04-09T04:31:57.109Z,87.86
2018-04-09T04:32:57.261Z,88.53
2018-04-09T04:33:57.413Z,88.24
2018-04-09T04:34:57.559Z,88.43
2018-04-09T04:35:57.709Z,88.43
2018-04-09T04:36:57.859Z,89.28
2018-04-09T04:37:58.010Z,89.57
2018-04-09T04:38:58.159Z,89.76
2018-04-09T04:39:58.309Z,88.81
2018-04-09T04:40:58.525Z,88.90
2018-04-09T04:41:58.612Z,88.62
2018-04-09T04:42:58.754Z,88.34
2018-04-09T04:43:58.894Z,88.24
2018-04-09T04:44:59.044Z,87.57
2018-04-09T04:45:59.232Z,88.43
2018-04-09T04:46:59.379Z,88.15
2018-04-09T04:47:59.484Z,89.00
2018-04-09T04:48:59.714Z,88.43
2018-04-09T04:49:59.798Z,88.71
2018-04-09T04:50:59.949Z,88.81
2018-04-09T04:52:00.098Z,89.47
2018-04-09T04:53:00.251Z,89.76
2018-04-09T04:54:00.401Z,89.47
2018-04-09T04:55:00.554Z,89.95
2018-04-09T04:56:00.743Z,89.47
2018-04-09T04:57:00.851Z,89.86
2018-04-09T04:58:00.999Z,89.76
2018-04-09T04:59:01.151Z,89.47
2018-04-09T05:00:01.298Z,89.19
2018-04-09T05:01:01.449Z,89.00
2018-04-09T05:02:01.599Z,89.19
2018-04-09T05:03:01.819Z,89.09
2018-04-09T05:04:01.899Z,88.81
2018-04-09T05:05:02.054Z,88.24
2018-04-09T05:06:02.265Z,88.43
2018-04-09T05:07:02.348Z,88.38
2018-04-09T05:08:02.549Z,88.43
2018-04-09T05:09:02.642Z,88.43
2018-04-09T05:10:02.791Z,87.81
2018-04-09T05:11:02.935Z,87.71
2018-04-09T05:12:03.075Z,86.82
2018-04-09T05:13:03.220Z,87.14
2018-04-09T05:14:03.368Z,87.19
2018-04-09T05:15:03.544Z,87.01
2018-04-09T05:16:03.676Z,86.76
2018-04-09T05:17:03.804Z,87.19
2018-04-09T05:18:03.965Z,87.52
2018-04-09T05:19:04.099Z,87.14
2018-04-09T05:20:04.246Z,86.86
2018-04-09T05:21:04.402Z,86.95
2018-04-09T05:22:04.546Z,86.47
2018-04-09T05:23:04.698Z,85.91
2018-04-09T05:24:04.846Z,86.57
2018-04-09T05:25:04.995Z,87.14
2018-04-09T05:26:05.139Z,87.14
2018-04-09T05:27:05.288Z,87.24
2018-04-09T05:28:05.438Z,87.14
2018-04-09T05:29:05.589Z,86.95
2018-04-09T05:30:05.739Z,87.05
2018-04-09T05:31:05.893Z,87.14
2018-04-09T05:32:06.075Z,87.81
2018-04-09T05:33:06.191Z,87.90
2018-04-09T05:34:06.342Z,88.38
2018-04-09T05:35:06.496Z,88.09
2018-04-09T05:36:06.648Z,88.47
2018-04-09T05:37:06.789Z,88.67
2018-04-09T05:38:06.948Z,88.09
2018-04-09T05:39:07.104Z,88.09
2018-04-09T05:40:07.254Z,87.90
2018-04-09T05:41:07.404Z,88.19
2018-04-09T05:42:07.555Z,88.00
2018-04-09T05:43:07.709Z,88.28
2018-04-09T05:44:07.899Z,88.19
2018-04-09T05:45:08.000Z,88.28
2018-04-09T05:46:08.368Z,88.09
2018-04-09T05:47:08.310Z,88.19
2018-04-09T05:48:08.461Z,88.47
2018-04-09T05:49:08.611Z,88.47
2018-04-09T05:50:08.749Z,88.19
2018-04-09T05:51:08.893Z,87.71
2018-04-09T05:52:09.044Z,87.43
2018-04-09T05:53:09.194Z,87.52
2018-04-09T05:54:09.350Z,87.24
2018-04-09T05:55:09.498Z,87.43
2018-04-09T05:56:09.646Z,87.34
2018-04-09T05:57:09.798Z,87.34
2018-04-09T05:58:09.951Z,87.24
2018-04-09T05:59:10.102Z,86.67
2018-04-09T06:00:10.253Z,86.38
2018-04-09T06:01:10.406Z,86.43
2018-04-09T06:02:10.563Z,86.05
2018-04-09T06:03:10.706Z,85.47
2018-04-09T06:04:10.857Z,85.38
2018-04-09T06:05:11.010Z,84.72
2018-04-09T06:06:11.160Z,84.91
2018-04-09T06:07:11.310Z,84.52
2018-04-09T06:08:11.459Z,84.52
2018-04-09T06:09:11.611Z,83.48
2018-04-09T06:10:11.764Z,82.86
2018-04-09T06:11:11.914Z,82.86
2018-04-09T06:12:12.066Z,83.14
2018-04-09T06:13:12.221Z,82.57
2018-04-09T06:14:12.369Z,82.67
2018-04-09T06:15:12.517Z,82.76
2018-04-09T06:16:12.781Z,82.09
2018-04-09T06:17:12.823Z,82.28
2018-04-09T06:18:12.972Z,81.90
2018-04-09T06:19:13.123Z,81.52
2018-04-09T06:20:13.273Z,81.05
2018-04-09T06:21:13.429Z,81.05
2018-04-09T06:22:13.576Z,80.66
2018-04-09T06:23:13.729Z,80.86
2018-04-09T06:24:13.880Z,81.14
2018-04-09T06:25:14.033Z,81.81
2018-04-09T06:26:14.188Z,80.95
2018-04-09T06:27:14.340Z,80.86
2018-04-09T06:28:14.492Z,81.09
2018-04-09T06:29:14.656Z,80.90
2018-04-09T06:30:14.790Z,80.71
2018-04-09T06:31:14.941Z,81.33
2018-04-09T06:32:15.094Z,82.19
2018-04-09T06:33:15.246Z,82.67
2018-04-09T06:34:15.394Z,82.57
2018-04-09T06:35:15.546Z,82.76
2018-04-09T06:36:15.701Z,83.23
2018-04-09T06:37:15.850Z,82.99
2018-04-09T06:38:16.001Z,83.09
2018-04-09T06:39:16.154Z,82.70
2018-04-09T06:40:16.339Z,82.32
2018-04-09T06:41:16.458Z,82.04
2018-04-09T06:42:16.609Z,81.76
2018-04-09T06:43:16.761Z,80.80
2018-04-09T06:44:16.912Z,80.52
2018-04-09T06:45:17.066Z,80.65
2018-04-09T06:46:17.220Z,80.75
2018-04-09T06:47:17.367Z,80.36
2018-04-09T06:48:17.518Z,79.89
2018-04-09T06:49:17.668Z,79.51
2018-04-09T06:50:17.818Z,79.51
2018-04-09T06:51:17.969Z,79.70
2018-04-09T06:52:18.146Z,80.18
2018-04-09T06:53:18.298Z,79.83
2018-04-09T06:54:18.453Z,79.27
2018-04-09T06:55:18.606Z,79.46
2018-04-09T06:56:18.759Z,78.78
2018-04-09T06:57:18.910Z,78.12
2018-04-09T06:58:19.062Z,77.74
2018-04-09T06:59:19.205Z,77.36
2018-04-09T07:00:19.354Z,77.45
2018-04-09T07:01:19.509Z,76.54
2018-04-09T07:02:19.662Z,76.44
2018-04-09T07:03:19.815Z,75.68
2018-04-09T07:04:19.969Z,75.30
2018-04-09T07:05:20.119Z,75.72
2018-04-09T07:06:20.275Z,74.77
2018-04-09T07:07:20.427Z,74.77
2018-04-09T07:08:20.576Z,74.96
2018-04-09T07:09:20.731Z,75.30
2018-04-09T07:10:20.886Z,74.82
2018-04-09T07:11:21.037Z,74.77
2018-04-09T07:12:21.199Z,75.05
2018-04-09T07:13:21.341Z,74.25
2018-04-09T07:14:21.494Z,74.73
2018-04-09T07:15:21.648Z,74.73
2018-04-09T07:16:21.799Z,74.82
2018-04-09T07:17:21.955Z,74.67
2018-04-09T07:18:22.107Z,74.01
2018-04-09T07:19:22.257Z,73.66
2018-04-09T07:20:22.411Z,73.94
2018-04-09T07:21:22.563Z,73.18
2018-04-09T07:22:22.723Z,73.37
2018-04-09T07:23:22.870Z,72.51
2018-04-09T07:24:23.024Z,72.89
2018-04-09T07:25:23.176Z,73.60
2018-04-09T07:26:23.331Z,72.36
2018-04-09T07:27:23.484Z,71.98
2018-04-09T07:28:23.644Z,72.17
2018-04-09T07:29:23.790Z,72.07
2018-04-09T07:30:23.940Z,70.83
2018-04-09T07:31:24.097Z,71.12
2018-04-09T07:32:24.254Z,70.96
2018-04-09T07:33:24.402Z,70.58
2018-04-09T07:34:24.555Z,70.77
2018-04-09T07:35:24.709Z,70.58
2018-04-09T07:36:24.863Z,71.15
2018-04-09T07:37:25.017Z,69.87
2018-04-09T07:38:25.202Z,69.49
2018-04-09T07:39:25.350Z,69.68
2018-04-09T07:40:25.481Z,69.97
2018-04-09T07:41:25.634Z,69.97
2018-04-09T07:42:25.789Z,70.16
2018-04-09T07:43:25.943Z,69.68
2018-04-09T07:44:26.131Z,69.43
2018-04-09T07:45:26.256Z,68.67
2018-04-09T07:46:26.408Z,68.76
2018-04-09T07:47:26.561Z,69.34
2018-04-09T07:48:26.714Z,69.72
2018-04-09T07:49:26.868Z,69.34
2018-04-09T07:50:27.020Z,69.34
2018-04-09T07:51:27.174Z,68.86
2018-04-09T07:52:27.327Z,69.05
2018-04-09T07:53:27.480Z,69.05
2018-04-09T07:54:27.635Z,68.86
2018-04-09T07:55:27.795Z,68.86
2018-04-09T07:56:27.943Z,68.00
2018-04-09T07:57:28.104Z,67.62
2018-04-09T07:58:28.251Z,67.36
2018-04-09T07:59:28.405Z,66.89
2018-04-09T08:00:28.560Z,67.55
2018-04-09T08:01:28.717Z,68.13
2018-04-09T08:02:28.870Z,68.61
2018-04-09T08:03:29.026Z,67.65
2018-04-09T08:04:29.182Z,66.99
2018-04-09T08:05:29.335Z,66.99
2018-04-09T08:06:29.490Z,66.60
2018-04-09T08:07:29.649Z,66.60
2018-04-09T08:08:29.800Z,65.68
2018-04-09T08:09:29.954Z,65.87
2018-04-09T08:10:30.107Z,66.25
2018-04-09T08:11:30.263Z,66.54
2018-04-09T08:12:30.421Z,66.25
2018-04-09T08:13:30.575Z,65.23
2018-04-09T08:14:30.736Z,65.90
2018-04-09T08:15:30.886Z,65.81
2018-04-09T08:16:31.038Z,64.85
2018-04-09T08:17:31.196Z,64.37
2018-04-09T08:18:31.355Z,63.70
2018-04-09T08:19:31.509Z,62.84
2018-04-09T08:20:31.665Z,62.94
2018-04-09T08:21:31.819Z,63.03
2018-04-09T08:22:31.974Z,63.80
2018-04-09T08:23:32.128Z,63.03
2018-04-09T08:24:32.283Z,63.51
2018-04-09T08:25:32.445Z,63.70
2018-04-09T08:26:32.692Z,62.94
2018-04-09T08:27:32.714Z,62.65
2018-04-09T08:28:32.869Z,64.28
2018-04-09T08:29:33.024Z,63.32
2018-04-09T08:30:33.179Z,63.16
2018-04-09T08:31:33.338Z,62.77
2018-04-09T08:32:33.494Z,63.16
2018-04-09T08:33:33.654Z,62.77
2018-04-09T08:34:33.883Z,61.44
2018-04-09T08:35:33.989Z,60.96
2018-04-09T08:36:34.145Z,60.67
2018-04-09T08:37:34.301Z,60.77
2018-04-09T08:38:34.461Z,61.05
2018-04-09T08:39:34.615Z,62.30
2018-04-09T08:40:34.770Z,61.34
2018-04-09T08:41:34.926Z,63.64
2018-04-09T08:42:35.083Z,62.30
2018-04-09T08:43:35.240Z,62.43
2018-04-09T08:44:35.397Z,61.15
2018-04-09T08:45:35.551Z,61.66
2018-04-09T08:46:35.706Z,62.14
2018-04-09T08:47:35.857Z,62.90
2018-04-09T08:48:36.012Z,64.34
2018-04-09T08:49:36.167Z,64.43
2018-04-09T08:50:36.325Z,61.79
2018-04-09T08:51:36.477Z,60.73
2018-04-09T08:52:36.633Z,61.11
2018-04-09T08:53:36.786Z,61.11
2018-04-09T08:54:36.941Z,60.35
2018-04-09T08:55:37.097Z,59.87
2018-04-09T08:56:37.255Z,59.48
2018-04-09T08:57:37.413Z,59.20
2018-04-09T08:58:37.566Z,59.20
2018-04-09T08:59:37.723Z,59.68
2018-04-09T09:00:37.878Z,59.61
2018-04-09T09:01:38.042Z,60.76
2018-04-09T09:02:38.192Z,59.48
2018-04-09T09:03:38.352Z,60.25
2018-04-09T09:04:38.506Z,60.19
2018-04-09T09:05:38.662Z,59.48
2018-04-09T09:06:38.819Z,59.97
2018-04-09T09:07:38.975Z,58.75
2018-04-09T09:08:39.135Z,58.91
2018-04-09T09:09:39.293Z,58.91
2018-04-09T09:10:39.447Z,58.37
2018-04-09T09:11:39.605Z,58.65
2018-04-09T09:12:39.760Z,59.33
2018-04-09T09:13:39.917Z,59.13
2018-04-09T09:14:40.077Z,58.75
2018-04-09T09:15:40.233Z,58.84
2018-04-09T09:16:40.392Z,58.72
2018-04-09T09:17:40.550Z,58.75
2018-04-09T09:18:40.708Z,58.08
2018-04-09T09:19:40.863Z,58.46
2018-04-09T09:20:41.021Z,57.89
2018-04-09T09:21:41.178Z,58.11
2018-04-09T09:22:41.336Z,56.57
2018-04-09T09:23:41.492Z,55.71
2018-04-09T09:24:41.651Z,56.31
2018-04-09T09:25:41.809Z,55.64
2018-04-09T09:26:41.963Z,54.78
2018-04-09T09:27:42.127Z,55.67
2018-04-09T09:28:42.280Z,54.71
2018-04-09T09:29:42.438Z,53.91
2018-04-09T09:30:42.594Z,53.63
2018-04-09T09:31:42.751Z,53.91
2018-04-09T09:32:42.907Z,53.63
2018-04-09T09:33:43.069Z,54.04
2018-04-09T09:34:43.223Z,54.33
2018-04-09T09:35:43.380Z,53.08
2018-04-09T09:36:43.540Z,52.53
2018-04-09T09:37:43.699Z,51.86
2018-04-09T09:38:43.854Z,52.08
2018-04-09T09:39:44.014Z,53.42
2018-04-09T09:40:44.168Z,52.17
2018-04-09T09:41:44.328Z,50.73
2018-04-09T09:42:44.484Z,50.15
2018-04-09T09:43:44.641Z,50.25
2018-04-09T09:44:44.802Z,50.37
2018-04-09T09:45:44.958Z,50.27
2018-04-09T09:46:45.116Z,50.46
2018-04-09T09:47:45.274Z,49.60
2018-04-09T09:48:45.433Z,49.51
2018-04-09T09:49:45.591Z,50.46
2018-04-09T09:50:45.749Z,49.41
2018-04-09T09:51:45.909Z,49.05
2018-04-09T09:52:46.072Z,49.02
2018-04-09T09:53:46.231Z,48.76
2018-04-09T09:54:46.388Z,48.08
2018-04-09T09:55:46.550Z,48.47
2018-04-09T09:56:46.707Z,49.05
2018-04-09T09:57:46.866Z,47.99
2018-04-09T09:58:47.026Z,48.76
2018-04-09T09:59:47.186Z,47.92
2018-04-09T10:00:47.346Z,47.89
2018-04-09T10:01:47.506Z,48.30
2018-04-09T10:02:47.664Z,47.89
2018-04-09T10:03:47.823Z,47.63
2018-04-09T10:04:47.982Z,47.63
2018-04-09T10:05:48.140Z,47.53
2018-04-09T10:06:48.301Z,48.49
2018-04-09T10:07:48.556Z,48.88
2018-04-09T10:08:48.619Z,48.08
2018-04-09T10:09:48.781Z,47.99
2018-04-09T10:10:48.937Z,47.61
2018-04-09T10:11:49.102Z,46.55
2018-04-09T10:12:49.261Z,47.80
2018-04-09T10:13:49.419Z,47.39
2018-04-09T10:14:49.579Z,47.77
2018-04-09T10:15:49.737Z,47.97
2018-04-09T10:16:49.896Z,48.45
2018-04-09T10:17:50.057Z,47.77
2018-04-09T10:18:50.214Z,47.68
2018-04-09T10:19:50.374Z,47.80
2018-04-09T10:20:50.528Z,47.80
2018-04-09T10:21:50.688Z,47.82
2018-04-09T10:22:50.845Z,47.24
2018-04-09T10:23:51.007Z,46.47
2018-04-09T10:24:51.163Z,47.46
2018-04-09T10:25:51.348Z,46.38
2018-04-09T10:26:51.484Z,47.13
2018-04-09T10:27:51.647Z,47.82
2018-04-09T10:28:51.809Z,47.82
2018-04-09T10:29:51.963Z,46.86
2018-04-09T10:30:52.123Z,47.53
2018-04-09T10:31:52.283Z,47.53
2018-04-09T10:32:52.442Z,48.52
2018-04-09T10:33:52.607Z,48.33
2018-04-09T10:34:52.763Z,47.00
2018-04-09T10:35:52.922Z,46.77
2018-04-09T10:36:53.081Z,48.30
2018-04-09T10:37:53.241Z,48.79
2018-04-09T10:38:53.401Z,48.30
2018-04-09T10:39:53.560Z,47.70
2018-04-09T10:40:53.721Z,48.88
2018-04-09T10:41:53.881Z,48.88
2018-04-09T10:42:54.039Z,47.85
2018-04-09T10:43:54.196Z,47.67
2018-04-09T10:44:54.357Z,47.00
2018-04-09T10:45:54.516Z,47.39
2018-04-09T10:46:54.675Z,46.81
2018-04-09T10:47:54.836Z,46.64
2018-04-09T10:48:54.995Z,46.47
2018-04-09T10:49:55.156Z,45.41
2018-04-09T10:50:55.326Z,45.41
2018-04-09T10:51:55.478Z,44.83
2018-04-09T10:52:55.638Z,44.62
2018-04-09T10:53:55.798Z,45.46
2018-04-09T10:54:55.959Z,46.23
2018-04-09T10:55:56.119Z,46.33
2018-04-09T10:56:56.282Z,46.31
2018-04-09T10:57:56.440Z,46.71
2018-04-09T10:58:56.603Z,46.06
2018-04-09T10:59:56.763Z,45.29
2018-04-09T11:00:56.925Z,45.39
2018-04-09T11:01:57.083Z,45.39
2018-04-09T11:02:57.245Z,44.42
2018-04-09T11:03:57.429Z,44.54
2018-04-09T11:04:57.563Z,44.46
2018-04-09T11:05:57.723Z,44.76
2018-04-09T11:06:57.884Z,45.24
2018-04-09T11:07:58.043Z,44.49
2018-04-09T11:08:58.205Z,43.72
2018-04-09T11:09:58.365Z,42.94
2018-04-09T11:10:58.525Z,43.35
2018-04-09T11:11:58.688Z,42.39
2018-04-09T11:12:58.849Z,42.27
2018-04-09T11:13:59.010Z,41.98
2018-04-09T11:14:59.172Z,41.30
2018-04-09T11:15:59.333Z,41.48
2018-04-09T11:16:59.494Z,41.96
2018-04-09T11:17:59.655Z,42.93
2018-04-09T11:18:59.815Z,41.60
2018-04-09T11:19:59.978Z,40.44
2018-04-09T11:21:00.138Z,39.54
2018-04-09T11:22:00.301Z,39.64
2018-04-09T11:23:00.465Z,39.57
2018-04-09T11:24:00.627Z,39.45
2018-04-09T11:25:00.787Z,39.64
2018-04-09T11:26:00.947Z,40.80
2018-04-09T11:27:01.109Z,40.97
2018-04-09T11:28:01.272Z,41.19
2018-04-09T11:29:01.437Z,41.19
2018-04-09T11:30:01.593Z,41.88
2018-04-09T11:31:01.755Z,41.60
2018-04-09T11:32:01.915Z,40.82
2018-04-09T11:33:02.079Z,40.26
2018-04-09T11:34:02.238Z,39.57
2018-04-09T11:35:02.402Z,38.89
2018-04-09T11:36:02.559Z,39.09
2018-04-09T11:37:02.729Z,38.31
2018-04-09T11:38:02.889Z,37.65
2018-04-09T11:39:03.048Z,38.02
2018-04-09T11:40:03.212Z,37.15
2018-04-09T11:41:03.371Z,37.54
2018-04-09T11:42:03.538Z,37.45
2018-04-09T11:43:03.691Z,37.83
2018-04-09T11:44:03.855Z,38.51
2018-04-09T11:45:04.015Z,38.51
2018-04-09T11:46:04.177Z,37.15
2018-04-09T11:47:04.341Z,37.15
2018-04-09T11:48:04.502Z,37.25
2018-04-09T11:49:04.664Z,38.79
2018-04-09T11:50:04.825Z,38.02
2018-04-09T11:51:04.986Z,37.63
2018-04-09T11:52:05.147Z,37.17
2018-04-09T11:53:05.312Z,37.08
2018-04-09T11:54:05.469Z,36.69
2018-04-09T11:55:05.630Z,37.27
2018-04-09T11:56:05.791Z,36.69
2018-04-09T11:57:05.951Z,36.11
2018-04-09T11:58:06.112Z,35.72
2018-04-09T11:59:06.277Z,36.59
2018-04-09T12:00:06.437Z,36.71
2018-04-09T12:01:06.599Z,35.55
2018-04-09T12:02:06.760Z,35.55
2018-04-09T12:03:06.923Z,35.94
2018-04-09T12:04:07.086Z,35.84
2018-04-09T12:05:07.246Z,35.53
2018-04-09T12:06:07.405Z,36.01
2018-04-09T12:07:07.567Z,36.01
2018-04-09T12:08:07.730Z,36.01
2018-04-09T12:09:07.889Z,36.01
2018-04-09T12:10:08.052Z,36.50
2018-04-09T12:11:08.214Z,36.96
2018-04-09T12:12:08.374Z,37.95
2018-04-09T12:13:08.534Z,36.50
2018-04-09T12:14:08.699Z,37.08
2018-04-09T12:15:08.854Z,35.72
2018-04-09T12:16:09.013Z,36.87
2018-04-09T12:17:09.177Z,36.48
2018-04-09T12:18:09.340Z,36.69
2018-04-09T12:19:09.500Z,35.80
2018-04-09T12:20:09.660Z,35.72
2018-04-09T12:21:09.822Z,35.53
2018-04-09T12:22:09.984Z,35.92
2018-04-09T12:23:10.146Z,35.55
2018-04-09T12:24:10.305Z,36.90
2018-04-09T12:25:10.467Z,35.74
2018-04-09T12:26:10.634Z,35.45
2018-04-09T12:27:10.798Z,34.89
2018-04-09T12:28:10.958Z,35.36
2018-04-09T12:29:11.120Z,35.28
2018-04-09T12:30:11.280Z,34.89
2018-04-09T12:31:11.440Z,33.92
2018-04-09T12:32:11.601Z,34.50
2018-04-09T12:33:11.764Z,35.18
2018-04-09T12:34:11.967Z,34.79
2018-04-09T12:35:12.088Z,34.70
2018-04-09T12:36:12.253Z,34.41
2018-04-09T12:37:12.409Z,34.70
2018-04-09T12:38:12.573Z,34.23
2018-04-09T12:39:12.737Z,33.26
2018-04-09T12:40:12.905Z,34.02
2018-04-09T12:41:13.062Z,34.04
2018-04-09T12:42:13.225Z,33.63
2018-04-09T12:43:13.386Z,33.26
2018-04-09T12:44:13.549Z,34.41
2018-04-09T12:45:13.713Z,33.65
2018-04-09T12:46:13.875Z,33.36
2018-04-09T12:47:14.040Z,33.44
2018-04-09T12:48:14.204Z,33.83
2018-04-09T12:49:14.363Z,33.44
2018-04-09T12:50:14.526Z,33.75
2018-04-09T12:51:14.690Z,33.84
2018-04-09T12:52:14.852Z,32.97
2018-04-09T12:53:15.014Z,32.68
2018-04-09T12:54:15.173Z,33.36